createdAt,value
2024-02-23T00:01:19.573Z,14.23
2024-02-23T00:03:47.681Z,12.15
2024-02-23T00:06:16.086Z,13.40
2024-02-23T00:08:44.200Z,15.23
2024-02-23T00:11:12.474Z,12.30
2024-02-23T00:13:40.360Z,12.23
2024-02-23T00:16:08.541Z,13.75
2024-02-23T00:18:36.383Z,11.52
2024-02-23T00:21:05.783Z,13.00
2024-02-23T00:23:33.714Z,12.00
2024-02-23T00:26:01.947Z,12.30
2024-02-23T00:28:29.750Z,14.35
2024-02-23T00:30:57.872Z,12.77
2024-02-23T00:33:25.642Z,14.05
2024-02-23T00:35:53.697Z,13.93
2024-02-23T00:38:21.506Z,13.15
2024-02-23T00:40:49.683Z,14.45
2024-02-23T00:43:17.556Z,11.77
2024-02-23T00:45:45.589Z,11.75
2024-02-23T00:48:15.025Z,11.27
2024-02-23T00:50:43.236Z,11.93
2024-02-23T00:53:11.479Z,12.93
2024-02-23T00:55:39.631Z,11.80
2024-02-23T00:58:07.632Z,11.85
2024-02-23T01:00:35.779Z,12.23
2024-02-23T01:03:03.792Z,10.77
2024-02-23T01:05:32.031Z,12.27
2024-02-23T01:07:59.936Z,12.52
2024-02-23T01:10:28.566Z,12.13
2024-02-23T01:12:56.410Z,10.70
2024-02-23T01:15:24.658Z,10.88
2024-02-23T01:17:52.439Z,10.88
2024-02-23T01:20:20.518Z,13.65
2024-02-23T01:22:48.496Z,10.95
2024-02-23T01:25:16.899Z,12.68
2024-02-23T01:27:47.730Z,12.70
2024-02-23T01:30:16.016Z,9.65
2024-02-23T01:32:44.056Z,10.65
2024-02-23T01:35:12.231Z,11.27
2024-02-23T01:37:40.186Z,10.93
2024-02-23T01:40:09.633Z,13.27
2024-02-23T01:42:37.449Z,9.88
2024-02-23T01:45:06.227Z,9.85
2024-02-23T01:47:34.194Z,10.10
2024-02-23T01:50:03.063Z,10.20
2024-02-23T01:52:31.111Z,9.30
2024-02-23T01:54:59.662Z,11.27
2024-02-23T01:57:40.223Z,12.32
2024-02-23T02:00:19.402Z,10.55
2024-02-23T02:02:54.795Z,12.75
2024-02-23T02:05:24.118Z,10.60
2024-02-23T02:07:55.467Z,9.30
2024-02-23T02:10:23.580Z,11.02
2024-02-23T02:12:51.412Z,8.65
2024-02-23T02:15:19.515Z,9.15
2024-02-23T02:17:47.653Z,9.43
2024-02-23T02:20:16.104Z,8.68
2024-02-23T02:22:43.946Z,10.40
2024-02-23T02:25:15.038Z,8.75
2024-02-23T02:27:43.574Z,8.27
2024-02-23T02:30:12.584Z,9.57
2024-02-23T02:32:42.042Z,10.38
2024-02-23T02:35:16.058Z,9.57
2024-02-23T02:37:44.037Z,10.35
2024-02-23T02:40:12.291Z,7.88
2024-02-23T02:42:40.039Z,9.07
2024-02-23T02:45:08.393Z,10.70
2024-02-23T02:47:37.626Z,8.75
2024-02-23T02:50:08.012Z,9.43
2024-02-23T02:52:35.949Z,10.57
2024-02-23T02:55:04.167Z,9.02
2024-02-23T02:57:31.953Z,8.60
2024-02-23T03:00:00.385Z,10.90
2024-02-23T03:02:28.379Z,9.57
2024-02-23T03:04:56.886Z,8.02
2024-02-23T03:07:24.763Z,7.88
2024-02-23T03:09:52.785Z,8.95
2024-02-23T03:12:20.709Z,7.78
2024-02-23T03:14:48.825Z,9.18
2024-02-23T03:17:16.681Z,8.77
2024-02-23T03:19:44.991Z,8.85
2024-02-23T03:22:12.889Z,8.82
2024-02-23T03:24:42.030Z,9.30
2024-02-23T03:27:09.842Z,8.25
2024-02-23T03:29:40.707Z,7.80
2024-02-23T03:32:09.353Z,9.75
2024-02-23T03:34:38.256Z,9.30
2024-02-23T03:37:06.269Z,10.13
2024-02-23T03:39:34.720Z,8.32
2024-02-23T03:42:02.466Z,9.98
2024-02-23T03:44:30.757Z,9.93
2024-02-23T03:46:58.624Z,8.50
2024-02-23T03:49:28.052Z,13.20
2024-02-23T03:51:57.071Z,9.95
2024-02-23T03:54:25.219Z,10.15
2024-02-23T03:56:53.011Z,11.65
2024-02-23T03:59:21.666Z,10.60
2024-02-23T04:01:49.461Z,11.85
2024-02-23T04:04:19.273Z,13.85
2024-02-23T04:06:47.204Z,10.35
2024-02-23T04:09:15.275Z,10.25
2024-02-23T04:11:43.279Z,9.95
2024-02-23T04:14:11.425Z,12.45
2024-02-23T04:16:39.174Z,12.23
2024-02-23T04:19:08.221Z,10.52
2024-02-23T04:21:36.841Z,11.48
2024-02-23T04:24:05.086Z,11.40
2024-02-23T04:26:33.295Z,11.75
2024-02-23T04:29:01.440Z,11.73
2024-02-23T04:31:29.317Z,10.93
2024-02-23T04:33:57.406Z,10.63
2024-02-23T04:36:25.746Z,12.95
2024-02-23T04:38:53.793Z,12.10
2024-02-23T04:41:24.735Z,12.02
2024-02-23T04:43:53.396Z,11.32
2024-02-23T04:46:23.838Z,10.15
2024-02-23T04:48:51.901Z,12.55
2024-02-23T04:51:20.267Z,13.25
2024-02-23T04:53:48.409Z,12.55
2024-02-23T04:56:16.234Z,11.77
2024-02-23T04:58:45.458Z,13.38
2024-02-23T05:01:13.905Z,12.20
2024-02-23T05:03:42.517Z,11.95
2024-02-23T05:06:10.414Z,10.90
2024-02-23T05:08:38.544Z,13.18
2024-02-23T05:11:06.461Z,14.93
2024-02-23T05:13:34.524Z,14.07
2024-02-23T05:16:02.313Z,11.38
2024-02-23T05:18:30.358Z,10.82
2024-02-23T05:20:58.148Z,13.07
2024-02-23T05:23:26.251Z,12.63
2024-02-23T05:25:54.170Z,10.43
2024-02-23T05:28:22.303Z,13.02
2024-02-23T05:30:50.077Z,11.70
2024-02-23T05:33:21.741Z,11.32
2024-02-23T05:35:53.497Z,12.13
2024-02-23T05:38:21.672Z,11.27
2024-02-23T05:40:49.700Z,12.60
2024-02-23T05:43:18.071Z,12.52
2024-02-23T05:45:46.655Z,11.18
2024-02-23T05:48:14.969Z,10.45
2024-02-23T05:50:42.921Z,12.23
2024-02-23T05:53:11.377Z,11.43
2024-02-23T05:55:39.140Z,11.82
2024-02-23T05:58:07.490Z,11.48
2024-02-23T06:00:35.558Z,13.88
2024-02-23T06:03:04.342Z,10.38
2024-02-23T06:05:32.583Z,10.93
2024-02-23T06:08:01.064Z,11.05
2024-02-23T06:10:28.898Z,11.48
2024-02-23T06:12:58.277Z,8.30
2024-02-23T06:15:26.624Z,9.57
2024-02-23T06:17:55.057Z,10.68
2024-02-23T06:20:22.836Z,9.63
2024-02-23T06:22:51.061Z,11.95
2024-02-23T06:25:19.060Z,10.30
2024-02-23T06:27:47.214Z,7.45
2024-02-23T06:30:15.166Z,9.43
2024-02-23T06:32:44.097Z,10.18
2024-02-23T06:35:13.468Z,8.77
2024-02-23T06:37:42.272Z,9.43
2024-02-23T06:40:10.447Z,8.80
2024-02-23T06:42:38.518Z,8.82
2024-02-23T06:45:06.902Z,8.40
2024-02-23T06:47:35.151Z,8.63
2024-02-23T06:50:04.705Z,10.98
2024-02-23T06:52:34.419Z,10.88
2024-02-23T06:55:02.252Z,9.45
2024-02-23T06:57:32.175Z,8.48
2024-02-23T07:00:00.057Z,7.85
2024-02-23T07:02:28.364Z,8.93
2024-02-23T07:04:58.047Z,7.28
2024-02-23T07:07:29.561Z,8.27
2024-02-23T07:09:57.820Z,8.98
2024-02-23T07:12:28.252Z,9.23
2024-02-23T07:14:58.615Z,9.10
2024-02-23T07:17:26.820Z,8.50
2024-02-23T07:19:54.783Z,8.50
2024-02-23T07:22:22.915Z,9.75
2024-02-23T07:24:50.775Z,9.68
2024-02-23T07:27:19.405Z,8.75
2024-02-23T07:29:47.399Z,9.73
2024-02-23T07:32:16.661Z,8.65
2024-02-23T07:34:44.834Z,8.50
2024-02-23T07:37:12.917Z,7.50
2024-02-23T07:39:41.182Z,8.02
2024-02-23T07:42:11.550Z,9.23
2024-02-23T07:44:39.755Z,8.13
2024-02-23T07:47:10.747Z,7.75
2024-02-23T07:49:38.650Z,9.63
2024-02-23T07:52:06.969Z,9.27
2024-02-23T07:54:34.884Z,8.85
2024-02-23T07:57:05.685Z,10.35
2024-02-23T07:59:34.412Z,9.35
2024-02-23T08:02:03.050Z,8.57
2024-02-23T08:04:31.359Z,10.13
2024-02-23T08:07:01.343Z,10.48
2024-02-23T08:09:29.949Z,12.27
2024-02-23T08:11:58.180Z,9.48
2024-02-23T08:14:27.677Z,8.70
2024-02-23T08:16:55.795Z,9.93
2024-02-23T08:19:25.216Z,9.98
2024-02-23T08:21:53.437Z,10.30
2024-02-23T08:24:23.871Z,8.73
2024-02-23T08:26:51.937Z,9.38
2024-02-23T08:29:20.065Z,10.40
2024-02-23T08:31:48.476Z,10.63
2024-02-23T08:34:16.375Z,8.82
2024-02-23T08:36:44.744Z,9.10
2024-02-23T08:39:12.699Z,10.40
2024-02-23T08:41:40.757Z,8.77
2024-02-23T08:44:08.591Z,11.48
2024-02-23T08:46:38.574Z,8.75
2024-02-23T08:49:06.612Z,10.18
2024-02-23T08:51:34.841Z,10.25
2024-02-23T08:54:05.788Z,8.75
2024-02-23T08:56:37.982Z,6.82
2024-02-23T08:59:05.916Z,7.28
2024-02-23T09:01:34.212Z,10.52
2024-02-23T09:04:02.413Z,7.88
2024-02-23T09:06:30.658Z,9.65
2024-02-23T09:08:58.738Z,7.28
2024-02-23T09:11:26.866Z,8.65
2024-02-23T09:13:54.730Z,8.45
2024-02-23T09:16:25.779Z,10.00
2024-02-23T09:18:53.683Z,9.65
2024-02-23T09:21:24.307Z,9.75
2024-02-23T09:23:52.207Z,7.80
2024-02-23T09:26:20.312Z,10.15
2024-02-23T09:28:48.196Z,8.50
2024-02-23T09:31:16.279Z,9.27
2024-02-23T09:33:45.308Z,9.40
2024-02-23T09:36:20.675Z,8.23
2024-02-23T09:38:49.718Z,9.50
2024-02-23T09:41:22.420Z,8.73
2024-02-23T09:43:52.338Z,9.17
2024-02-23T09:46:20.745Z,7.85
2024-02-23T09:48:51.622Z,7.65
2024-02-23T09:51:21.676Z,7.70
2024-02-23T09:53:52.877Z,8.55
2024-02-23T09:56:22.548Z,7.65
2024-02-23T09:58:51.730Z,8.38
2024-02-23T10:01:28.799Z,8.02
2024-02-23T10:03:59.490Z,7.60
2024-02-23T10:06:27.973Z,8.20
2024-02-23T10:08:56.307Z,13.25
2024-02-23T10:11:25.772Z,8.55
2024-02-23T10:13:54.002Z,9.18
2024-02-23T10:16:23.248Z,9.88
2024-02-23T10:18:51.557Z,9.50
2024-02-23T10:21:19.893Z,7.88
2024-02-23T10:23:51.558Z,9.05
2024-02-23T10:26:21.709Z,8.95
2024-02-23T10:28:50.032Z,9.80
2024-02-23T10:31:18.371Z,8.93
2024-02-23T10:33:49.018Z,11.27
2024-02-23T10:36:18.973Z,10.60
2024-02-23T10:38:48.471Z,8.68
2024-02-23T10:41:18.879Z,9.77
2024-02-23T10:43:49.898Z,10.30
2024-02-23T10:46:19.667Z,10.57
2024-02-23T10:48:49.902Z,11.30
2024-02-23T10:51:20.952Z,9.00
2024-02-23T10:53:51.452Z,9.80
2024-02-23T10:56:20.591Z,10.20
2024-02-23T10:58:48.925Z,9.73
2024-02-23T11:01:19.451Z,10.07
2024-02-23T11:03:51.786Z,9.43
2024-02-23T11:06:22.779Z,11.00
2024-02-23T11:08:52.805Z,10.50
2024-02-23T11:11:20.870Z,11.10
2024-02-23T11:13:48.970Z,11.25
2024-02-23T11:16:27.327Z,10.13
2024-02-23T11:19:12.629Z,10.38
2024-02-23T11:21:40.927Z,10.25
2024-02-23T11:24:09.059Z,13.93
2024-02-23T11:26:39.212Z,9.13
2024-02-23T11:29:16.996Z,10.70
2024-02-23T11:31:48.330Z,10.10
2024-02-23T11:34:25.780Z,10.23
2024-02-23T11:36:54.549Z,10.52
2024-02-23T11:39:24.518Z,11.40
2024-02-23T11:41:52.648Z,11.23
2024-02-23T11:44:21.501Z,12.10
2024-02-23T11:46:49.388Z,11.60
2024-02-23T11:49:17.691Z,12.30
2024-02-23T11:51:45.914Z,11.75
2024-02-23T11:54:15.070Z,16.02
2024-02-23T11:56:45.317Z,11.65
2024-02-23T11:59:14.269Z,10.88
2024-02-23T12:01:42.595Z,13.93
2024-02-23T12:04:10.805Z,10.68
2024-02-23T12:06:38.685Z,12.85
2024-02-23T12:09:07.977Z,11.70
2024-02-23T12:11:36.520Z,10.90
2024-02-23T12:14:08.920Z,12.32
2024-02-23T12:16:37.773Z,11.68
2024-02-23T12:19:06.076Z,11.23
2024-02-23T12:21:37.660Z,12.25
2024-02-23T12:24:10.062Z,12.32
2024-02-23T12:26:38.492Z,10.50
2024-02-23T12:29:07.640Z,11.60
2024-02-23T12:31:35.986Z,10.55
2024-02-23T12:34:04.322Z,12.65
2024-02-23T12:36:36.273Z,11.13
2024-02-23T12:39:04.720Z,11.68
2024-02-23T12:41:33.111Z,9.40
2024-02-23T12:44:01.385Z,10.73
2024-02-23T12:46:29.228Z,11.85
2024-02-23T12:48:57.293Z,11.38
2024-02-23T12:51:28.387Z,11.45
2024-02-23T12:53:56.896Z,10.18
2024-02-23T12:56:26.454Z,11.20
2024-02-23T12:58:55.616Z,10.82
2024-02-23T13:01:23.856Z,10.88
2024-02-23T13:03:52.083Z,11.73
2024-02-23T13:06:20.119Z,10.70
2024-02-23T13:08:48.300Z,10.93
2024-02-23T13:11:16.327Z,11.23
2024-02-23T13:13:45.603Z,13.13
2024-02-23T13:16:16.247Z,13.52
2024-02-23T13:18:45.349Z,11.38
2024-02-23T13:21:14.144Z,11.93
2024-02-23T13:23:44.499Z,12.07
2024-02-23T13:26:15.608Z,13.13
2024-02-23T13:28:45.467Z,11.70
2024-02-23T13:31:14.943Z,12.32
2024-02-23T13:33:43.355Z,13.98
2024-02-23T13:36:13.173Z,13.02
2024-02-23T13:38:43.145Z,11.63
2024-02-23T13:41:12.916Z,13.98
2024-02-23T13:43:41.382Z,11.10
2024-02-23T13:46:09.252Z,13.60
2024-02-23T13:48:38.270Z,12.90
2024-02-23T13:51:06.866Z,12.75
2024-02-23T13:53:37.493Z,13.98
2024-02-23T13:56:05.978Z,12.93
2024-02-23T13:58:34.266Z,14.98
2024-02-23T14:01:02.284Z,14.60
2024-02-23T14:03:31.946Z,15.30
2024-02-23T14:06:00.162Z,14.02
2024-02-23T14:08:28.459Z,12.95
2024-02-23T14:10:56.384Z,16.10
2024-02-23T14:13:24.656Z,14.45
2024-02-23T14:15:52.606Z,15.05
2024-02-23T14:18:20.836Z,14.88
2024-02-23T14:20:48.736Z,14.73
2024-02-23T14:23:17.002Z,15.02
2024-02-23T14:25:44.788Z,16.40
2024-02-23T14:28:13.517Z,15.35
2024-02-23T14:30:44.123Z,14.23
2024-02-23T14:33:12.277Z,14.48
2024-02-23T14:35:40.165Z,15.32
2024-02-23T14:38:08.592Z,15.88
2024-02-23T14:40:36.601Z,18.52
2024-02-23T14:43:05.997Z,18.20
2024-02-23T14:45:34.410Z,19.17
2024-02-23T14:48:02.619Z,16.10
2024-02-23T14:50:30.762Z,15.13
2024-02-23T14:52:59.002Z,18.13
2024-02-23T14:55:27.068Z,19.63
2024-02-23T14:57:56.165Z,18.83
2024-02-23T15:00:23.954Z,17.02
2024-02-23T15:02:52.077Z,19.13
2024-02-23T15:05:20.454Z,20.77
2024-02-23T15:07:48.632Z,21.40
2024-02-23T15:10:16.499Z,22.40
2024-02-23T15:12:44.684Z,26.95
2024-02-23T15:15:12.677Z,20.20
2024-02-23T15:20:11.624Z,23.52
2024-02-23T15:22:43.567Z,22.73
2024-02-23T15:25:11.498Z,22.95
2024-02-23T15:27:39.571Z,23.42
2024-02-23T15:30:11.772Z,21.45
2024-02-23T15:32:40.209Z,21.98
2024-02-23T15:35:08.429Z,20.33
2024-02-23T15:37:36.688Z,19.83
2024-02-23T15:40:07.544Z,23.38
2024-02-23T15:42:37.060Z,19.45
2024-02-23T15:45:08.399Z,20.52
2024-02-23T15:47:36.677Z,19.90
2024-02-23T15:50:22.716Z,24.17
2024-02-23T15:52:53.114Z,23.63
2024-02-23T15:55:21.616Z,24.08
2024-02-23T15:57:49.825Z,25.23
2024-02-23T16:00:18.238Z,25.85
2024-02-23T16:02:46.541Z,23.30
2024-02-23T16:05:14.547Z,26.33
2024-02-23T16:07:42.873Z,29.65
2024-02-23T16:10:13.920Z,26.13
2024-02-23T16:12:42.285Z,29.02
2024-02-23T16:15:10.434Z,28.52
2024-02-23T16:17:38.744Z,27.60
2024-02-23T16:20:07.543Z,29.35
2024-02-23T16:22:35.740Z,42.47
2024-02-23T16:25:04.311Z,43.60
2024-02-23T16:27:32.523Z,39.85
2024-02-23T16:30:01.145Z,42.15
2024-02-23T16:32:29.495Z,35.33
2024-02-23T16:34:57.457Z,32.85
2024-02-23T16:37:26.030Z,32.33
2024-02-23T16:39:54.021Z,39.65
2024-02-23T16:42:22.250Z,34.50
2024-02-23T16:44:50.037Z,35.10
2024-02-23T16:47:18.172Z,36.75
2024-02-23T16:49:46.157Z,34.70
2024-02-23T16:52:14.532Z,35.28
2024-02-23T16:54:42.375Z,59.67
2024-02-23T16:57:10.624Z,70.35
2024-02-23T16:59:38.590Z,60.55
2024-02-23T17:02:06.803Z,66.75
2024-02-23T17:04:34.787Z,63.72
2024-02-23T17:07:03.148Z,58.58
2024-02-23T17:09:31.084Z,58.10
2024-02-23T17:11:59.228Z,54.15
2024-02-23T17:14:27.134Z,50.40
2024-02-23T17:16:55.192Z,55.33
2024-02-23T17:19:24.372Z,54.55
2024-02-23T17:21:52.472Z,62.45
2024-02-23T17:24:20.279Z,58.20
2024-02-23T17:26:48.410Z,59.45
2024-02-23T17:29:16.346Z,68.18
2024-02-23T17:31:44.769Z,67.07
2024-02-23T17:34:17.404Z,68.57
2024-02-23T17:36:47.238Z,60.53
2024-02-23T17:39:17.061Z,61.03
2024-02-23T17:41:45.612Z,63.85
2024-02-23T17:44:13.729Z,78.00
2024-02-23T17:46:43.398Z,73.05
2024-02-23T17:49:12.262Z,64.28
2024-02-23T17:51:40.854Z,71.47
2024-02-23T17:54:09.375Z,76.47
2024-02-23T17:56:37.708Z,91.55
2024-02-23T17:59:06.313Z,99.53
2024-02-23T18:01:34.795Z,98.60
2024-02-23T18:04:02.991Z,121.82
2024-02-23T18:06:31.373Z,102.55
2024-02-23T18:08:59.321Z,108.78
2024-02-23T18:11:29.355Z,95.00
2024-02-23T18:13:57.420Z,89.90
2024-02-23T18:16:25.738Z,78.70
2024-02-23T18:18:54.564Z,102.47
2024-02-23T18:21:23.376Z,93.70
2024-02-23T18:23:51.286Z,92.97
2024-02-23T18:26:19.619Z,105.55
2024-02-23T18:28:47.538Z,104.93
2024-02-23T18:31:20.612Z,90.20
2024-02-23T18:33:48.690Z,82.82
2024-02-23T18:36:17.406Z,80.28
2024-02-23T18:38:45.904Z,86.97
2024-02-23T18:41:14.544Z,92.45
2024-02-23T18:43:44.475Z,110.78
2024-02-23T18:46:13.977Z,95.13
2024-02-23T18:48:42.082Z,106.88
2024-02-23T18:51:11.468Z,87.13
2024-02-23T18:53:40.759Z,96.22
2024-02-23T18:56:09.887Z,98.63
2024-02-23T18:58:37.829Z,95.50
2024-02-23T19:01:08.254Z,95.10
2024-02-23T19:03:36.882Z,104.40
2024-02-23T19:06:06.351Z,107.60
2024-02-23T19:08:34.435Z,133.93
2024-02-23T19:11:05.074Z,107.97
2024-02-23T19:13:33.000Z,93.28
2024-02-23T19:16:01.224Z,111.50
2024-02-23T19:18:29.098Z,114.57
2024-02-23T19:20:57.310Z,151.52
2024-02-23T19:23:25.325Z,177.52
2024-02-23T19:25:53.589Z,166.15
2024-02-23T19:28:21.413Z,238.45
2024-02-23T19:30:49.481Z,233.23
2024-02-23T19:33:17.249Z,155.45
2024-02-23T19:35:45.479Z,278.42
2024-02-23T19:38:13.565Z,293.42
2024-02-23T19:40:41.751Z,112.10
2024-02-23T19:43:09.656Z,130.32
2024-02-23T19:45:37.847Z,217.52
2024-02-23T19:48:06.070Z,190.23
2024-02-23T19:50:34.322Z,180.38
2024-02-23T19:53:02.222Z,146.45
2024-02-23T19:55:31.170Z,110.53
2024-02-23T19:57:59.620Z,84.88
2024-02-23T20:00:28.650Z,84.68
2024-02-23T20:02:56.774Z,84.43
2024-02-23T20:05:27.326Z,86.30
2024-02-23T20:07:55.719Z,90.80
2024-02-23T20:10:24.051Z,81.78
2024-02-23T20:12:52.056Z,89.43
2024-02-23T20:15:20.314Z,92.80
2024-02-23T20:17:48.346Z,127.32
2024-02-23T20:20:18.608Z,119.85
2024-02-23T20:22:46.445Z,128.85
2024-02-23T20:25:14.640Z,111.38
2024-02-23T20:27:42.634Z,93.90
2024-02-23T20:30:11.573Z,93.03
2024-02-23T20:32:39.700Z,83.43
2024-02-23T20:35:09.531Z,93.95
2024-02-23T20:37:39.175Z,96.07
2024-02-23T20:40:09.748Z,93.28
2024-02-23T20:42:37.710Z,101.30
2024-02-23T20:45:08.507Z,89.68
2024-02-23T20:47:36.630Z,89.28
2024-02-23T20:50:06.162Z,76.25
2024-02-23T20:52:34.085Z,94.30
2024-02-23T20:55:02.271Z,87.85
2024-02-23T20:57:30.363Z,79.13
2024-02-23T20:59:58.986Z,79.65
2024-02-23T21:02:26.925Z,88.20
2024-02-23T21:04:55.197Z,95.97
2024-02-23T21:07:23.113Z,83.90
2024-02-23T21:09:51.262Z,86.13
2024-02-23T21:12:19.206Z,92.97
2024-02-23T21:14:48.420Z,95.63
2024-02-23T21:17:17.602Z,129.90
2024-02-23T21:19:45.694Z,97.30
2024-02-23T21:22:13.522Z,85.30
2024-02-23T21:24:45.922Z,87.25
2024-02-23T21:27:15.176Z,95.95
2024-02-23T21:29:45.397Z,84.47
2024-02-23T21:32:13.865Z,89.10
2024-02-23T21:34:42.183Z,84.68
2024-02-23T21:37:10.085Z,79.93
2024-02-23T21:39:38.083Z,86.57
2024-02-23T21:42:06.215Z,88.20
2024-02-23T21:44:34.896Z,83.22
2024-02-23T21:47:02.716Z,90.63
2024-02-23T21:49:30.924Z,85.32
2024-02-23T21:52:04.346Z,84.22
2024-02-23T21:54:33.148Z,82.20
2024-02-23T21:57:01.973Z,80.60
2024-02-23T21:59:31.074Z,83.05
2024-02-23T22:02:06.315Z,83.45
2024-02-23T22:04:36.575Z,81.07
2024-02-23T22:07:05.225Z,75.90
2024-02-23T22:09:33.378Z,82.85
2024-02-23T22:12:02.791Z,76.97
2024-02-23T22:14:31.066Z,74.13
2024-02-23T22:16:58.894Z,83.18
2024-02-23T22:19:27.119Z,77.07
2024-02-23T22:21:55.479Z,74.45
2024-02-23T22:24:24.553Z,79.85
2024-02-23T22:26:52.578Z,78.43
2024-02-23T22:29:21.585Z,72.55
2024-02-23T22:31:49.578Z,73.20
2024-02-23T22:34:19.276Z,77.78
2024-02-23T22:36:47.283Z,78.10
2024-02-23T22:39:15.490Z,74.82
2024-02-23T22:41:43.600Z,71.85
2024-02-23T22:44:13.744Z,75.65
2024-02-23T22:46:42.060Z,85.38
2024-02-23T22:49:11.347Z,71.50
2024-02-23T22:51:44.039Z,76.10
2024-02-23T22:54:12.354Z,70.35
2024-02-23T22:56:40.186Z,65.45
2024-02-23T22:59:11.313Z,58.15
2024-02-23T23:01:42.657Z,68.30
2024-02-23T23:04:10.715Z,57.70
2024-02-23T23:06:41.991Z,59.42
2024-02-23T23:09:10.752Z,72.75
2024-02-23T23:11:42.130Z,70.20
2024-02-23T23:14:10.629Z,64.82
2024-02-23T23:16:38.586Z,63.22
2024-02-23T23:19:06.889Z,68.07
2024-02-23T23:21:34.946Z,63.45
2024-02-23T23:24:03.156Z,77.20
2024-02-23T23:26:31.043Z,72.13
2024-02-23T23:28:59.286Z,66.50
2024-02-23T23:31:29.032Z,72.22
2024-02-23T23:33:57.542Z,69.05
2024-02-23T23:36:25.767Z,78.75
2024-02-23T23:38:53.998Z,65.88
2024-02-23T23:41:22.713Z,66.63
2024-02-23T23:43:51.009Z,67.45
2024-02-23T23:46:18.861Z,68.63
2024-02-23T23:48:48.544Z,64.07
2024-02-23T23:51:16.836Z,74.53
2024-02-23T23:53:45.037Z,71.90
2024-02-23T23:56:13.093Z,68.95
2024-02-23T23:58:41.757Z,64.70
